Data for 03/15/2008

Time Sea-Level Adjusted Pressure Absolute Pressure Temperature Relative Humidity Dew Point   
(mb) (inHg) (mb) (inHg) (C) (F) (%) (C) (F)
00:05 1010 29.83 839 24.78 -1.5 29.4 83 -3.9 25
00:10 1010 29.83 839 24.78 -1.4 29.5 84 -3.8 25.2
00:15 1010 29.83 839 24.78 -1.5 29.3 84 -3.8 25.2
00:20 1010 29.83 839 24.78 -1.7 28.9 85 -4 24.8
00:25 1009 29.8 839 24.78 -2 28.4 84 -4.4 24.2
00:30 1009 29.8 839 24.78 -2 28.5 84 -4.3 24.3
00:35 1009 29.8 839 24.78 -1.9 28.5 83 -4.4 24.1
00:40 1009 29.8 839 24.78 -2 28.5 82 -4.6 23.7
00:45 1009 29.8 839 24.78 -2 28.5 81 -4.8 23.4
00:50 1009 29.8 839 24.78 -2 28.4 81 -4.8 23.3
00:55 1009 29.8 839 24.78 -2.1 28.2 81 -4.9 23.1
01:00 1009 29.8 838 24.75 -2.3 27.9 81 -5.1 22.9
01:05 1009 29.8 838 24.75 -2.3 27.9 80 -5.2 22.6
01:10 1009 29.8 838 24.75 -2.2 28 80 -5.2 22.6
01:15 1009 29.8 838 24.75 -2.2 28.1 79 -5.3 22.5
01:20 1009 29.8 838 24.75 -2.1 28.2 79 -5.3 22.4
01:25 1009 29.8 838 24.75 -2.1 28.2 78 -5.4 22.4
01:30 1009 29.8 838 24.75 -2.2 28 78 -5.5 22.1
01:35 1009 29.8 838 24.75 -2.4 27.7 78 -5.7 21.8
01:40 1009 29.8 838 24.75 -2.6 27.3 79 -5.8 21.5
01:45 1009 29.8 838 24.75 -2.7 27.2 78 -5.9 21.3
01:50 1009 29.8 838 24.75 -2.7 27.1 78 -6 21.2
01:55 1009 29.8 838 24.75 -2.7 27.2 78 -6 21.2
02:00 1009 29.8 838 24.75 -2.6 27.3 78 -5.9 21.4
02:05 1009 29.8 838 24.75 -2.6 27.4 78 -5.8 21.5
02:10 1009 29.8 838 24.75 -2.6 27.4 79 -5.8 21.6
02:15 1009 29.8 838 24.75 -2.6 27.2 79 -5.8 21.6
02:20 1009 29.8 838 24.75 -2.8 27 80 -5.8 21.5
02:25 1009 29.8 838 24.75 -2.8 26.9 80 -5.8 21.5
02:30 1009 29.8 838 24.75 -2.8 26.9 80 -5.8 21.5
02:35 1009 29.8 838 24.75 -2.8 27 79 -5.9 21.4
02:40 1009 29.8 838 24.75 -2.7 27.1 79 -5.9 21.4
02:45 1009 29.8 838 24.75 -2.7 27.1 78 -5.9 21.3
02:50 1009 29.8 838 24.75 -2.7 27.1 78 -6.1 21
02:55 1009 29.8 838 24.75 -2.7 27.1 77 -6.2 20.8
03:00 1009 29.8 838 24.75 -2.9 26.9 76 -6.4 20.4
03:05 1009 29.8 838 24.75 -2.9 26.8 76 -6.6 20.1
03:10 1009 29.8 838 24.75 -2.9 26.8 75 -6.8 19.8
03:15 1009 29.8 838 24.75 -2.9 26.8 74 -6.8 19.7
03:20 1009 29.8 838 24.75 -2.9 26.8 74 -6.9 19.6
03:25 1009 29.8 838 24.75 -2.9 26.9 74 -6.9 19.6
03:30 1009 29.8 838 24.75 -2.9 26.8 73 -7 19.3
03:35 1009 29.8 838 24.75 -2.8 26.9 72 -7.2 19.1
03:40 1009 29.8 838 24.75 -2.8 27 71 -7.3 18.9
03:45 1009 29.8 838 24.75 -2.8 26.9 71 -7.4 18.7
03:50 1009 29.8 838 24.75 -3 26.6 71 -7.5 18.5
03:55 1009 29.8 838 24.75 -3 26.6 72 -7.5 18.6
04:00 1009 29.8 838 24.75 -3.2 26.2 72 -7.6 18.2
04:05 1009 29.8 838 24.75 -3.4 25.9 72 -7.8 18
04:10 1009 29.8 838 24.75 -3.5 25.7 72 -7.9 17.9
04:15 1009 29.8 838 24.75 -3.6 25.6 72 -7.9 17.8
04:20 1009 29.8 838 24.75 -3.7 25.3 72 -8 17.6
04:25 1009 29.8 838 24.75 -3.7 25.4 72 -8.1 17.4
04:30 1009 29.8 838 24.75 -3.7 25.4 71 -8.2 17.3
04:35 1009 29.8 838 24.75 -3.6 25.5 71 -8.2 17.2
04:40 1009 29.8 838 24.75 -3.7 25.3 71 -8.3 17.1
04:45 1009 29.8 838 24.75 -3.8 25.2 71 -8.3 17
04:50 1009 29.8 838 24.75 -3.9 24.9 71 -8.4 16.9
04:55 1009 29.8 838 24.75 -4.2 24.5 72 -8.5 16.7
05:00 1009 29.8 838 24.75 -4.4 24.2 73 -8.5 16.7
05:05 1009 29.8 838 24.75 -4.4 24 73 -8.6 16.6
05:10 1009 29.8 838 24.75 -4.4 24 73 -8.5 16.7
05:15 1009 29.8 838 24.75 -4.4 24.1 74 -8.4 16.8
05:20 1009 29.8 838 24.75 -4.4 24.1 74 -8.3 17
05:25 1009 29.8 838 24.75 -4.4 24.1 74 -8.3 17
05:30 1009 29.8 838 24.75 -4.4 24.1 74 -8.3 17
05:35 1009 29.8 838 24.75 -4.3 24.2 74 -8.3 17.1
05:40 1009 29.8 838 24.75 -4.3 24.3 73 -8.3 17
05:45 1009 29.8 838 24.75 -4.4 24.1 74 -8.4 16.8
05:50 1009 29.8 838 24.75 -4.5 23.9 74 -8.5 16.7
05:55 1009 29.8 838 24.75 -4.5 24 73 -8.5 16.7
06:00 1009 29.8 838 24.75 -4.5 24 73 -8.5 16.6
06:05 1009 29.8 838 24.75 -4.4 24 73 -8.5 16.6
06:10 1009 29.8 838 24.75 -4.4 24.1 73 -8.6 16.5
06:15 1009 29.8 838 24.75 -4.3 24.2 72 -8.6 16.6
06:20 1009 29.8 838 24.75 -4.4 24.2 72 -8.6 16.5
06:25 1009 29.8 838 24.75 -4.4 24.1 72 -8.7 16.4
06:30 1009 29.8 838 24.75 -4.5 23.9 72 -8.7 16.3
06:35 1009 29.8 838 24.75 -4.4 24 72 -8.7 16.3
06:40 1009 29.8 838 24.75 -4.3 24.3 72 -8.7 16.3
06:45 1009 29.8 838 24.75 -4.3 24.3 72 -8.7 16.4
06:50 1009 29.8 838 24.75 -4.3 24.2 72 -8.7 16.3
06:55 1009 29.8 838 24.75 -4.3 24.3 71 -8.7 16.4
07:00 1009 29.8 838 24.75 -4.3 24.2 71 -8.8 16.2
07:05 1009 29.8 838 24.75 -4.3 24.2 71 -8.8 16.2
07:10 1009 29.8 838 24.75 -4.5 23.9 72 -8.8 16.1
07:15 1009 29.8 838 24.75 -4.6 23.7 72 -8.9 16
07:20 1009 29.8 838 24.75 -4.5 23.9 71 -8.9 15.9
07:25 1009 29.8 838 24.75 -4.4 24 71 -8.9 15.9
07:30 1009 29.8 838 24.75 -4.5 24 71 -9 15.8
07:35 1009 29.8 838 24.75 -4.4 24.1 71 -9 15.8
07:40 1009 29.8 838 24.75 -4.4 24.2 70 -9 15.8
07:45 1009 29.8 838 24.75 -4.4 24.1 70 -9 15.8
07:50 1009 29.8 838 24.75 -4.4 24.1 70 -9 15.8
07:55 1009 29.8 838 24.75 -4.3 24.2 70 -9 15.9
08:00 1009 29.8 838 24.75 -4.4 24.1 70 -9 15.8
08:05 1009 29.8 838 24.75 -4.5 24 71 -9 15.8
08:10 1009 29.8 838 24.75 -4.4 24.1 71 -9 15.9
08:15 1009 29.8 838 24.75 -4.5 24 71 -9 15.8
08:20 1009 29.8 838 24.75 -4.4 24.1 71 -8.9 15.9
08:25 1009 29.8 838 24.75 -4.3 24.3 71 -8.8 16.2
08:30 1009 29.8 838 24.75 -3.9 25 70 -8.7 16.4
08:35 1009 29.8 838 24.75 -3.6 25.6 69 -8.5 16.7
08:40 1009 29.8 839 24.78 -3.2 26.3 68 -8.3 17
08:45 1009 29.8 839 24.78 -2.8 27 66 -8.2 17.2
08:50 1010 29.83 839 24.78 -2.4 27.6 66 -7.9 17.8
08:55 1010 29.83 839 24.78 -2.2 28 64 -8 17.6
09:00 1010 29.83 839 24.78 -2.4 27.7 66 -7.9 17.7
09:05 1010 29.83 839 24.78 -2.4 27.6 66 -8 17.6
09:10 1010 29.83 839 24.78 -2.4 27.8 65 -8.1 17.5
09:15 1010 29.83 839 24.78 -2.3 27.9 65 -7.9 17.8
09:20 1010 29.83 839 24.78 -2 28.3 66 -7.6 18.3
09:25 1010 29.83 839 24.78 -1.9 28.6 66 -7.4 18.7
09:30 1010 29.83 839 24.78 -1.9 28.7 67 -7.3 18.9
09:35 1010 29.83 839 24.78 -1.8 28.8 67 -7.1 19.2
09:40 1010 29.83 839 24.78 -1.6 29 67 -7 19.3
09:45 1010 29.83 839 24.78 -1.4 29.4 67 -6.8 19.8
09:50 1010 29.83 839 24.78 -1.2 29.8 67 -6.6 20.2
09:55 1010 29.83 839 24.78 -1.1 30 67 -6.4 20.4
10:00 1010 29.83 839 24.78 -1 30.2 65 -6.8 19.8
10:05 1010 29.83 839 24.78 -1.2 29.9 66 -6.8 19.8
10:10 1010 29.83 839 24.78 -1.1 29.9 66 -6.7 19.9
10:15 1010 29.83 839 24.78 -1.4 29.5 67 -6.6 20
10:20 1010 29.83 839 24.78 -1.4 29.5 68 -6.5 20.3
10:25 1010 29.83 839 24.78 -1.2 29.8 69 -6.2 20.8
10:30 1010 29.83 839 24.78 -1 30.2 69 -6 21.1
10:35 1010 29.83 839 24.78 -0.7 30.7 68 -5.8 21.5
10:40 1010 29.83 839 24.78 -0.1 31.7 67 -5.6 22
10:45 1010 29.83 839 24.78 0.2 32.3 66 -5.5 22.1
10:50 1010 29.83 839 24.78 0.3 32.5 65 -5.6 21.9
10:55 1010 29.83 839 24.78 0.4 32.7 64 -5.7 21.8
11:00 1010 29.83 839 24.78 0.3 32.5 63 -5.9 21.4
11:05 1010 29.83 839 24.78 0.7 33.3 61 -5.9 21.3
11:10 1010 29.83 839 24.78 1.9 35.3 55 -6.1 20.9
11:15 1010 29.83 839 24.78 2.2 35.9 54 -6.3 20.7
11:20 1010 29.83 839 24.78 2.5 36.6 52 -6.3 20.7
11:25 1010 29.83 839 24.78 3 37.4 51 -6.3 20.7
11:30 1010 29.83 839 24.78 3.1 37.7 52 -5.8 21.5
11:35 1010 29.83 839 24.78 3.4 38.1 50 -6.2 20.8
11:40 1010 29.83 839 24.78 2.6 36.7 53 -6 21.2
11:45 1010 29.83 839 24.78 2 35.6 55 -6.1 21
11:50 1010 29.83 839 24.78 2.9 37.2 51 -6.2 20.9
11:55 1010 29.83 839 24.78 3.7 38.6 50 -5.7 21.7
12:00 1010 29.83 839 24.78 3.1 37.6 51 -6.2 20.9
12:05 1010 29.83 839 24.78 3.1 37.5 51 -6.2 20.9
12:10 1010 29.83 839 24.78 3.5 38.4 50 -5.9 21.3
12:15 1010 29.83 839 24.78 2.9 37.3 52 -6 21.1
12:20 1010 29.83 839 24.78 2.4 36.4 53 -6.1 21.1
12:25 1010 29.83 839 24.78 2.1 35.8 53 -6.5 20.3
12:30 1010 29.83 839 24.78 2.2 36 54 -6.1 21
12:35 1010 29.83 839 24.78 3.1 37.5 50 -6.3 20.6
12:40 1010 29.83 839 24.78 3.2 37.7 48 -6.7 19.9
12:45 1010 29.83 839 24.78 3.7 38.7 47 -6.7 19.9
12:50 1010 29.83 839 24.78 4.5 40.1 44 -6.8 19.8
12:55 1010 29.83 839 24.78 4.2 39.5 43 -7.2 19
13:00 1009 29.8 839 24.78 4.7 40.5 41 -7.4 18.7
13:05 1009 29.8 839 24.78 5.3 41.5 40 -7.2 19.1
13:10 1009 29.8 839 24.78 6.1 43 38 -7.3 18.8
13:15 1009 29.8 838 24.75 5.9 42.7 37 -7.6 18.3
13:20 1009 29.8 838 24.75 6.2 43.1 36 -7.8 17.9
13:25 1009 29.8 838 24.75 6 42.8 36 -7.8 17.9
13:30 1009 29.8 838 24.75 5.6 42.1 37 -7.8 18
13:35 1009 29.8 838 24.75 5.3 41.5 39 -7.6 18.3
13:40 1009 29.8 838 24.75 6.1 43 34 -8.5 16.7
13:45 1009 29.8 838 24.75 5.1 41.3 37 -8.2 17.2
13:50 1009 29.8 838 24.75 5.6 42 36 -8.5 16.7
13:55 1009 29.8 838 24.75 5.6 42.2 34 -8.9 16
14:00 1009 29.8 838 24.75 4.7 40.5 36 -9.2 15.4
14:05 1009 29.8 838 24.75 4.3 39.7 35 -9.9 14.1
14:10 1009 29.8 838 24.75 4 39.3 36 -9.6 14.8
14:15 1009 29.8 838 24.75 4.7 40.5 37 -8.7 16.3
14:20 1009 29.8 838 24.75 4.6 40.3 37 -8.7 16.3
14:25 1009 29.8 838 24.75 4.3 39.8 36 -9.3 15.2
14:30 1009 29.8 838 24.75 4.7 40.5 35 -9.4 15
14:35 1009 29.8 838 24.75 4.5 40.1 36 -9.4 15.1
14:40 1009 29.8 838 24.75 4.9 40.9 33 -10 14.1
14:45 1009 29.8 838 24.75 4.3 39.8 35 -10 14.1
14:50 1009 29.8 838 24.75 4.2 39.6 35 -9.9 14.3
14:55 1009 29.8 838 24.75 4.5 40.1 37 -9 15.7
15:00 1008 29.77 838 24.75 4.2 39.6 37 -9.3 15.2
15:05 1008 29.77 838 24.75 4.5 40.1 39 -8.2 17.2
15:10 1008 29.77 838 24.75 5.7 42.2 36 -8.2 17.2
15:15 1008 29.77 838 24.75 5.7 42.3 35 -8.5 16.6
15:20 1008 29.77 838 24.75 5.8 42.5 35 -8.5 16.7
15:25 1008 29.77 838 24.75 5.1 41.2 37 -8.5 16.7
15:30 1008 29.77 838 24.75 5.2 41.4 36 -8.6 16.6
15:35 1008 29.77 838 24.75 5.8 42.4 34 -8.7 16.3
15:40 1008 29.77 838 24.75 5.3 41.5 36 -8.7 16.3
15:45 1008 29.77 838 24.75 5.2 41.3 35 -9 15.7
15:50 1008 29.77 838 24.75 4.6 40.3 38 -8.6 16.5
15:55 1008 29.77 838 24.75 3.9 39.1 40 -8.5 16.8
16:00 1008 29.77 838 24.75 3.5 38.4 43 -8 17.5
16:05 1008 29.77 838 24.75 3.9 39 43 -7.5 18.4
16:10 1008 29.77 838 24.75 3.5 38.4 44 -7.5 18.5
16:15 1008 29.77 838 24.75 3.7 38.7 43 -7.8 18
16:20 1008 29.77 838 24.75 5.3 41.5 40 -7.3 18.9
16:25 1008 29.77 838 24.75 5.1 41.3 41 -7.1 19.2
16:30 1008 29.77 838 24.75 4.9 40.9 40 -7.5 18.5
16:35 1008 29.77 838 24.75 5.3 41.5 39 -7.6 18.3
16:40 1008 29.77 838 24.75 6.3 43.3 36 -7.7 18.1
16:45 1008 29.77 838 24.75 5.9 42.6 39 -7.2 19.1
16:50 1008 29.77 838 24.75 4 39.2 42 -7.7 18.2
16:55 1008 29.77 838 24.75 4.4 39.9 40 -7.9 17.7
17:00 1008 29.77 838 24.75 4.2 39.6 41 -8 17.7
17:05 1008 29.77 838 24.75 4.7 40.4 40 -8 17.6
17:10 1008 29.77 838 24.75 4.5 40.1 40 -7.8 17.9
17:15 1008 29.77 838 24.75 4.2 39.6 41 -7.8 17.9
17:20 1008 29.77 838 24.75 4 39.2 41 -8 17.6
17:25 1008 29.77 838 24.75 4 39.2 42 -7.8 18
17:30 1008 29.77 838 24.75 3.7 38.6 42 -8 17.6
17:35 1008 29.77 838 24.75 3.4 38.2 43 -7.9 17.7
17:40 1008 29.77 838 24.75 3 37.4 44 -8.1 17.4
17:45 1008 29.77 838 24.75 3.3 37.9 43 -8.2 17.2
17:50 1008 29.77 838 24.75 3.1 37.6 43 -8.3 17
17:55 1008 29.77 838 24.75 3.3 37.9 42 -8.5 16.7
18:00 1008 29.77 838 24.75 3.4 38.1 42 -8.5 16.7
18:05 1008 29.77 838 24.75 3.3 38 41 -8.6 16.6
18:10 1008 29.77 838 24.75 3.2 37.8 41 -8.7 16.4
18:15 1009 29.8 838 24.75 3.4 38.2 41 -8.5 16.7
18:20 1009 29.8 838 24.75 3.4 38.1 41 -8.6 16.5
18:25 1009 29.8 838 24.75 3.1 37.6 42 -8.7 16.3
18:30 1009 29.8 838 24.75 3 37.4 42 -8.8 16.1
18:35 1009 29.8 838 24.75 3 37.4 42 -8.7 16.3
18:40 1009 29.8 838 24.75 3.2 37.8 41 -8.9 16.1
18:45 1009 29.8 838 24.75 3.1 37.6 41 -8.8 16.2
18:50 1009 29.8 838 24.75 2.8 37.1 43 -8.7 16.4
18:55 1009 29.8 838 24.75 2.8 37 43 -8.6 16.6
19:00 1009 29.8 838 24.75 2.6 36.7 43 -8.7 16.4
19:05 1009 29.8 838 24.75 2.5 36.5 44 -8.7 16.4
19:10 1009 29.8 838 24.75 2.4 36.3 44 -8.7 16.4
19:15 1009 29.8 838 24.75 2.3 36.2 44 -8.6 16.4
19:20 1009 29.8 838 24.75 2.3 36.1 45 -8.6 16.5
19:25 1009 29.8 838 24.75 2.2 36 45 -8.6 16.5
19:30 1009 29.8 838 24.75 2.1 35.8 45 -8.6 16.6
19:35 1009 29.8 838 24.75 2.1 35.8 45 -8.5 16.7
19:40 1009 29.8 838 24.75 2.2 35.9 45 -8.6 16.6
19:45 1009 29.8 838 24.75 2.3 36.1 45 -8.6 16.5
19:50 1009 29.8 838 24.75 2.4 36.3 44 -8.7 16.4
19:55 1009 29.8 838 24.75 2.5 36.5 44 -8.7 16.4
20:00 1009 29.8 838 24.75 2.4 36.4 44 -8.6 16.5
20:05 1009 29.8 838 24.75 2.1 35.9 48 -7.7 18.1
20:10 1009 29.8 838 24.75 1.5 34.7 51 -7.5 18.5
20:15 1009 29.8 838 24.75 1.1 34 53 -7.4 18.6
20:20 1009 29.8 838 24.75 0.9 33.7 55 -7.1 19.1
20:25 1009 29.8 838 24.75 0.6 33.1 57 -7 19.4
20:30 1009 29.8 838 24.75 0.4 32.6 58 -7 19.4
20:35 1009 29.8 838 24.75 0.3 32.6 58 -7 19.5
20:40 1009 29.8 839 24.78 0.1 32.1 59 -6.9 19.5
20:45 1009 29.8 839 24.78 -0.1 31.8 60 -7 19.5
20:50 1009 29.8 839 24.78 -0.4 31.4 62 -6.9 19.6
20:55 1009 29.8 839 24.78 -0.7 30.8 63 -6.8 19.8
21:00 1009 29.8 839 24.78 -0.9 30.4 64 -6.8 19.8
21:05 1009 29.8 839 24.78 -0.9 30.3 64 -6.8 19.8
21:10 1010 29.83 839 24.78 -0.8 30.5 64 -6.7 19.9
21:15 1010 29.83 839 24.78 -0.9 30.5 64 -6.9 19.6
21:20 1010 29.83 839 24.78 -0.9 30.5 63 -7 19.3
21:25 1010 29.83 839 24.78 -0.9 30.4 63 -7.1 19.3
21:30 1010 29.83 839 24.78 -0.9 30.4 63 -7.1 19.3
21:35 1010 29.83 839 24.78 -1 30.2 63 -7.2 19.1
21:40 1010 29.83 839 24.78 -1 30.3 63 -7.2 19
21:45 1010 29.83 839 24.78 -0.9 30.4 62 -7.2 19
21:50 1010 29.83 839 24.78 -0.9 30.4 62 -7.3 18.9
21:55 1010 29.83 839 24.78 -0.9 30.3 62 -7.3 18.8
22:00 1010 29.83 839 24.78 -1 30.2 62 -7.3 18.8
22:05 1010 29.83 839 24.78 -1.1 30 63 -7.3 18.8
22:10 1010 29.83 839 24.78 -1.2 29.9 63 -7.3 18.8
22:15 1010 29.83 839 24.78 -1.2 29.8 63 -7.3 18.8
22:20 1010 29.83 839 24.78 -1.2 29.8 63 -7.4 18.7
22:25 1010 29.83 839 24.78 -1.3 29.6 63 -7.5 18.5
22:30 1010 29.83 839 24.78 -1.4 29.5 63 -7.5 18.4
22:35 1010 29.83 839 24.78 -1.2 29.9 63 -7.2 19
22:40 1010 29.83 839 24.78 -1 30.2 63 -7.2 19.1
22:45 1010 29.83 839 24.78 -1 30.1 62 -7.5 18.5
22:50 1010 29.83 839 24.78 -1 30.1 61 -7.6 18.3
22:55 1010 29.83 839 24.78 -1 30.1 61 -7.5 18.4
23:00 1010 29.83 839 24.78 -1.2 29.9 61 -7.7 18.2
23:05 1010 29.83 839 24.78 -1.3 29.6 62 -7.6 18.2
23:10 1010 29.83 839 24.78 -1.5 29.4 63 -7.7 18.2
23:15 1010 29.83 839 24.78 -1.6 29.2 63 -7.7 18.2
23:20 1010 29.83 839 24.78 -1.5 29.3 63 -7.7 18.1
23:25 1010 29.83 839 24.78 -1.5 29.3 63 -7.7 18.2
23:30 1010 29.83 839 24.78 -1.5 29.3 62 -7.8 18
23:35 1010 29.83 839 24.78 -1.4 29.4 63 -7.6 18.3
23:40 1010 29.83 839 24.78 -1.5 29.3 64 -7.6 18.4
23:45 1010 29.83 839 24.78 -1.4 29.5 64 -7.4 18.6
23:50 1010 29.83 839 24.78 -1.6 29.2 66 -7.1 19.2
23:55 1010 29.83 839 24.78 -1.6 29.1 66 -7.2 19.1
24:00 1010 29.83 840 24.81 -1.8 28.8 66 -7.3 18.9